KHWO/HWO METAR and TAF weather

Enter ICAO airport designator
Station Type Date Time Source
KHWO METAR 2021/04/13 22:53 UTC NOAA

KHWO 132253Z 07008KT 10SM CLR 28/10 A3002 RMK AO2 SLP166 T02780100


Station Type Date Time Source
KHWO Decoded METAR 2021/04/13 22:53 UTC NOAA

HOLLYWOOD NORTH PERRY AIRPORT , FL, United States (KHWO) 26-00N 080-14W 2M
Apr 13, 2021 - 06:53 PM EDT / 2021.04.13 2253 UTC
Wind: from the ENE (070 degrees) at 9 MPH (8 KT):0
Visibility: 10 mile(s):0
Sky conditions: clear
Temperature: 82.0 F (27.8 C)
Dew Point: 50.0 F (10.0 C)
Relative Humidity: 32%
Pressure (altimeter): 30.02 in. Hg (1016 hPa)
ob: KHWO 132253Z 07008KT 10SM CLR 28/10 A3002 RMK AO2 SLP166 T02780100
cycle: 23

Station Type Date Time Source
KHWO TAF 2020/02/03 18:20 UTC NOAA

TAF KHWO 031720Z 0318/0418 12005KT P6SM SKC
FM040000 VRB03KT P6SM SKC
FM041500 14010KT P6SM FEW030

Example: see airport list